sensor_id;sensor_type;location;lat;lon;timestamp;P1;durP1;ratioP1;P2;durP2;ratioP2
18893;SDS011;9579;49.488;8.226;2024-03-29T00:01:04;4.00;;;3.00;;
18893;SDS011;9579;49.488;8.226;2024-03-29T00:03:50;3.30;;;2.90;;
18893;SDS011;9579;49.488;8.226;2024-03-29T00:06:38;3.43;;;3.00;;
18893;SDS011;9579;49.488;8.226;2024-03-29T00:09:24;4.63;;;3.10;;
18893;SDS011;9579;49.488;8.226;2024-03-29T00:12:10;4.13;;;3.10;;
18893;SDS011;9579;49.488;8.226;2024-03-29T00:14:56;3.80;;;2.80;;
18893;SDS011;9579;49.488;8.226;2024-03-29T00:17:42;3.90;;;3.20;;
18893;SDS011;9579;49.488;8.226;2024-03-29T00:20:28;4.77;;;3.40;;
18893;SDS011;9579;49.488;8.226;2024-03-29T00:23:16;4.03;;;3.30;;
18893;SDS011;9579;49.488;8.226;2024-03-29T00:26:03;7.33;;;3.40;;
18893;SDS011;9579;49.488;8.226;2024-03-29T00:28:49;4.37;;;3.07;;
18893;SDS011;9579;49.488;8.226;2024-03-29T00:31:35;4.00;;;2.87;;
18893;SDS011;9579;49.488;8.226;2024-03-29T00:34:21;3.77;;;2.90;;
18893;SDS011;9579;49.488;8.226;2024-03-29T00:37:07;4.47;;;3.03;;
18893;SDS011;9579;49.488;8.226;2024-03-29T00:39:55;3.17;;;2.70;;
18893;SDS011;9579;49.488;8.226;2024-03-29T00:42:41;3.07;;;2.73;;
18893;SDS011;9579;49.488;8.226;2024-03-29T00:45:27;3.63;;;2.90;;
18893;SDS011;9579;49.488;8.226;2024-03-29T00:48:13;3.30;;;2.70;;
18893;SDS011;9579;49.488;8.226;2024-03-29T00:51:00;3.00;;;2.63;;
18893;SDS011;9579;49.488;8.226;2024-03-29T00:53:46;2.90;;;2.57;;
18893;SDS011;9579;49.488;8.226;2024-03-29T00:56:33;3.00;;;2.70;;
18893;SDS011;9579;49.488;8.226;2024-03-29T00:59:19;3.70;;;2.90;;
18893;SDS011;9579;49.488;8.226;2024-03-29T01:02:05;4.03;;;2.60;;
18893;SDS011;9579;49.488;8.226;2024-03-29T01:04:51;2.70;;;2.27;;
18893;SDS011;9579;49.488;8.226;2024-03-29T01:07:39;3.53;;;2.57;;
18893;SDS011;9579;49.488;8.226;2024-03-29T01:10:26;4.50;;;2.90;;
18893;SDS011;9579;49.488;8.226;2024-03-29T01:13:13;3.90;;;2.63;;
18893;SDS011;9579;49.488;8.226;2024-03-29T01:15:59;3.10;;;2.47;;
18893;SDS011;9579;49.488;8.226;2024-03-29T01:18:45;2.97;;;2.50;;
18893;SDS011;9579;49.488;8.226;2024-03-29T01:21:31;3.80;;;2.90;;
18893;SDS011;9579;49.488;8.226;2024-03-29T01:24:17;3.67;;;2.60;;
18893;SDS011;9579;49.488;8.226;2024-03-29T01:27:04;2.67;;;2.30;;
18893;SDS011;9579;49.488;8.226;2024-03-29T01:29:51;4.03;;;2.57;;
18893;SDS011;9579;49.488;8.226;2024-03-29T01:32:38;3.27;;;2.60;;
18893;SDS011;9579;49.488;8.226;2024-03-29T01:35:24;3.70;;;2.50;;
18893;SDS011;9579;49.488;8.226;2024-03-29T01:38:10;2.87;;;2.43;;
18893;SDS011;9579;49.488;8.226;2024-03-29T01:40:56;3.60;;;2.60;;
18893;SDS011;9579;49.488;8.226;2024-03-29T01:43:42;5.10;;;3.00;;
18893;SDS011;9579;49.488;8.226;2024-03-29T01:46:31;2.97;;;2.43;;
18893;SDS011;9579;49.488;8.226;2024-03-29T01:49:21;2.87;;;2.53;;
18893;SDS011;9579;49.488;8.226;2024-03-29T01:52:09;2.70;;;2.40;;
18893;SDS011;9579;49.488;8.226;2024-03-29T01:54:56;3.77;;;2.70;;
18893;SDS011;9579;49.488;8.226;2024-03-29T01:57:43;3.17;;;2.17;;
18893;SDS011;9579;49.488;8.226;2024-03-29T02:00:31;2.73;;;2.23;;
18893;SDS011;9579;49.488;8.226;2024-03-29T02:03:20;3.53;;;2.37;;
18893;SDS011;9579;49.488;8.226;2024-03-29T02:06:07;2.97;;;2.20;;
18893;SDS011;9579;49.488;8.226;2024-03-29T02:08:55;2.30;;;2.00;;
18893;SDS011;9579;49.488;8.226;2024-03-29T02:11:42;2.90;;;2.13;;
18893;SDS011;9579;49.488;8.226;2024-03-29T02:14:30;3.23;;;2.00;;
18893;SDS011;9579;49.488;8.226;2024-03-29T02:17:17;3.17;;;2.30;;
18893;SDS011;9579;49.488;8.226;2024-03-29T02:20:05;3.83;;;2.13;;
18893;SDS011;9579;49.488;8.226;2024-03-29T02:22:53;2.63;;;2.00;;
18893;SDS011;9579;49.488;8.226;2024-03-29T02:25:42;3.53;;;2.33;;
18893;SDS011;9579;49.488;8.226;2024-03-29T02:28:30;2.83;;;1.93;;
18893;SDS011;9579;49.488;8.226;2024-03-29T02:31:17;2.10;;;1.90;;
18893;SDS011;9579;49.488;8.226;2024-03-29T02:34:04;2.23;;;1.90;;
18893;SDS011;9579;49.488;8.226;2024-03-29T02:36:53;2.37;;;1.93;;
18893;SDS011;9579;49.488;8.226;2024-03-29T02:39:40;2.63;;;1.93;;
18893;SDS011;9579;49.488;8.226;2024-03-29T02:42:28;2.97;;;2.00;;
18893;SDS011;9579;49.488;8.226;2024-03-29T02:45:15;2.20;;;2.00;;
18893;SDS011;9579;49.488;8.226;2024-03-29T02:48:02;2.87;;;2.07;;
18893;SDS011;9579;49.488;8.226;2024-03-29T02:50:49;2.33;;;1.90;;
18893;SDS011;9579;49.488;8.226;2024-03-29T02:53:35;2.77;;;2.07;;
18893;SDS011;9579;49.488;8.226;2024-03-29T02:56:22;2.10;;;1.90;;
18893;SDS011;9579;49.488;8.226;2024-03-29T02:59:10;2.10;;;1.90;;
18893;SDS011;9579;49.488;8.226;2024-03-29T03:01:56;2.97;;;1.93;;
18893;SDS011;9579;49.488;8.226;2024-03-29T03:04:43;2.10;;;1.90;;
18893;SDS011;9579;49.488;8.226;2024-03-29T03:07:29;2.40;;;2.20;;
18893;SDS011;9579;49.488;8.226;2024-03-29T03:10:34;2.60;;;1.97;;
18893;SDS011;9579;49.488;8.226;2024-03-29T03:13:39;2.27;;;2.07;;
18893;SDS011;9579;49.488;8.226;2024-03-29T03:16:27;2.00;;;1.73;;
18893;SDS011;9579;49.488;8.226;2024-03-29T03:19:14;2.33;;;2.00;;
18893;SDS011;9579;49.488;8.226;2024-03-29T03:22:00;3.07;;;2.03;;
18893;SDS011;9579;49.488;8.226;2024-03-29T03:24:47;2.50;;;2.00;;
18893;SDS011;9579;49.488;8.226;2024-03-29T03:27:33;3.03;;;2.00;;
18893;SDS011;9579;49.488;8.226;2024-03-29T03:30:20;2.60;;;2.17;;
18893;SDS011;9579;49.488;8.226;2024-03-29T03:33:08;2.20;;;1.80;;
18893;SDS011;9579;49.488;8.226;2024-03-29T03:35:54;2.20;;;2.00;;
18893;SDS011;9579;49.488;8.226;2024-03-29T03:38:41;1.83;;;1.67;;
18893;SDS011;9579;49.488;8.226;2024-03-29T03:41:27;2.43;;;1.90;;
18893;SDS011;9579;49.488;8.226;2024-03-29T03:44:14;2.77;;;2.00;;
18893;SDS011;9579;49.488;8.226;2024-03-29T03:47:00;2.77;;;1.80;;
18893;SDS011;9579;49.488;8.226;2024-03-29T03:49:49;2.17;;;1.97;;
18893;SDS011;9579;49.488;8.226;2024-03-29T03:52:35;2.53;;;1.90;;
18893;SDS011;9579;49.488;8.226;2024-03-29T03:55:22;2.30;;;1.90;;
18893;SDS011;9579;49.488;8.226;2024-03-29T03:58:08;3.63;;;2.03;;
18893;SDS011;9579;49.488;8.226;2024-03-29T04:00:55;2.50;;;1.97;;
18893;SDS011;9579;49.488;8.226;2024-03-29T04:03:41;2.00;;;1.80;;
18893;SDS011;9579;49.488;8.226;2024-03-29T04:06:30;3.87;;;2.13;;
18893;SDS011;9579;49.488;8.226;2024-03-29T04:09:16;2.17;;;1.97;;
18893;SDS011;9579;49.488;8.226;2024-03-29T04:12:03;3.80;;;1.93;;
18893;SDS011;9579;49.488;8.226;2024-03-29T04:14:49;2.90;;;2.10;;
18893;SDS011;9579;49.488;8.226;2024-03-29T04:17:36;2.00;;;1.80;;
18893;SDS011;9579;49.488;8.226;2024-03-29T04:20:22;3.97;;;2.20;;
18893;SDS011;9579;49.488;8.226;2024-03-29T04:23:11;2.63;;;1.90;;
18893;SDS011;9579;49.488;8.226;2024-03-29T04:25:57;2.23;;;1.87;;
18893;SDS011;9579;49.488;8.226;2024-03-29T04:28:45;3.53;;;2.10;;
18893;SDS011;9579;49.488;8.226;2024-03-29T04:31:31;1.70;;;1.57;;
18893;SDS011;9579;49.488;8.226;2024-03-29T04:34:18;2.00;;;1.80;;
18893;SDS011;9579;49.488;8.226;2024-03-29T04:37:04;2.87;;;1.83;;
18893;SDS011;9579;49.488;8.226;2024-03-29T04:39:52;3.00;;;1.90;;
18893;SDS011;9579;49.488;8.226;2024-03-29T04:42:39;3.03;;;1.90;;
18893;SDS011;9579;49.488;8.226;2024-03-29T04:45:26;2.00;;;1.70;;
18893;SDS011;9579;49.488;8.226;2024-03-29T04:48:13;2.83;;;1.87;;
18893;SDS011;9579;49.488;8.226;2024-03-29T04:51:01;2.57;;;1.93;;
18893;SDS011;9579;49.488;8.226;2024-03-29T04:53:48;3.07;;;1.87;;
18893;SDS011;9579;49.488;8.226;2024-03-29T04:56:36;2.07;;;1.87;;
18893;SDS011;9579;49.488;8.226;2024-03-29T04:59:23;2.10;;;1.90;;
18893;SDS011;9579;49.488;8.226;2024-03-29T05:02:10;1.80;;;1.70;;
18893;SDS011;9579;49.488;8.226;2024-03-29T05:04:57;2.90;;;1.93;;
18893;SDS011;9579;49.488;8.226;2024-03-29T05:07:44;2.57;;;2.13;;
18893;SDS011;9579;49.488;8.226;2024-03-29T05:10:31;2.20;;;1.97;;
18893;SDS011;9579;49.488;8.226;2024-03-29T05:13:21;2.73;;;2.33;;
18893;SDS011;9579;49.488;8.226;2024-03-29T05:16:08;2.47;;;1.90;;
18893;SDS011;9579;49.488;8.226;2024-03-29T05:18:55;3.00;;;2.10;;
18893;SDS011;9579;49.488;8.226;2024-03-29T05:21:42;2.83;;;2.00;;
18893;SDS011;9579;49.488;8.226;2024-03-29T05:24:29;3.90;;;2.47;;
18893;SDS011;9579;49.488;8.226;2024-03-29T05:27:16;3.23;;;2.43;;
18893;SDS011;9579;49.488;8.226;2024-03-29T05:30:05;2.40;;;2.20;;
18893;SDS011;9579;49.488;8.226;2024-03-29T05:32:54;3.20;;;2.20;;
18893;SDS011;9579;49.488;8.226;2024-03-29T05:35:41;2.47;;;2.10;;
18893;SDS011;9579;49.488;8.226;2024-03-29T05:38:28;2.30;;;2.10;;
18893;SDS011;9579;49.488;8.226;2024-03-29T05:41:15;3.43;;;2.50;;
18893;SDS011;9579;49.488;8.226;2024-03-29T05:44:03;2.40;;;2.20;;
18893;SDS011;9579;49.488;8.226;2024-03-29T05:46:52;2.50;;;2.30;;
18893;SDS011;9579;49.488;8.226;2024-03-29T05:49:39;3.13;;;2.43;;
18893;SDS011;9579;49.488;8.226;2024-03-29T05:52:26;2.70;;;2.50;;
18893;SDS011;9579;49.488;8.226;2024-03-29T05:55:13;3.00;;;2.70;;
18893;SDS011;9579;49.488;8.226;2024-03-29T05:58:01;3.50;;;2.73;;
18893;SDS011;9579;49.488;8.226;2024-03-29T06:00:48;3.73;;;2.80;;
18893;SDS011;9579;49.488;8.226;2024-03-29T06:03:36;2.60;;;2.40;;
18893;SDS011;9579;49.488;8.226;2024-03-29T06:06:23;3.37;;;2.60;;
18893;SDS011;9579;49.488;8.226;2024-03-29T06:09:10;2.93;;;1.90;;
18893;SDS011;9579;49.488;8.226;2024-03-29T06:11:57;2.37;;;2.20;;
18893;SDS011;9579;49.488;8.226;2024-03-29T06:14:44;2.27;;;2.07;;
18893;SDS011;9579;49.488;8.226;2024-03-29T06:18:00;2.00;;;1.80;;
18893;SDS011;9579;49.488;8.226;2024-03-29T06:20:49;2.87;;;2.20;;
18893;SDS011;9579;49.488;8.226;2024-03-29T06:23:36;1.90;;;1.80;;
18893;SDS011;9579;49.488;8.226;2024-03-29T06:26:23;2.30;;;2.10;;
18893;SDS011;9579;49.488;8.226;2024-03-29T06:29:10;3.07;;;2.40;;
18893;SDS011;9579;49.488;8.226;2024-03-29T06:31:57;4.13;;;2.43;;
18893;SDS011;9579;49.488;8.226;2024-03-29T06:34:44;3.20;;;2.53;;
18893;SDS011;9579;49.488;8.226;2024-03-29T06:37:32;2.37;;;2.17;;
18893;SDS011;9579;49.488;8.226;2024-03-29T06:40:19;2.60;;;2.40;;
18893;SDS011;9579;49.488;8.226;2024-03-29T06:43:06;3.73;;;2.83;;
18893;SDS011;9579;49.488;8.226;2024-03-29T06:45:55;3.90;;;2.87;;
18893;SDS011;9579;49.488;8.226;2024-03-29T06:48:44;3.03;;;2.70;;
18893;SDS011;9579;49.488;8.226;2024-03-29T06:51:31;3.10;;;2.80;;
18893;SDS011;9579;49.488;8.226;2024-03-29T06:54:19;2.77;;;2.17;;
18893;SDS011;9579;49.488;8.226;2024-03-29T06:57:07;3.07;;;2.60;;
18893;SDS011;9579;49.488;8.226;2024-03-29T06:59:57;3.60;;;3.30;;
18893;SDS011;9579;49.488;8.226;2024-03-29T07:02:44;5.40;;;4.23;;
18893;SDS011;9579;49.488;8.226;2024-03-29T07:05:31;5.23;;;4.23;;
18893;SDS011;9579;49.488;8.226;2024-03-29T07:08:18;7.23;;;5.50;;
18893;SDS011;9579;49.488;8.226;2024-03-29T07:11:06;7.40;;;5.50;;
18893;SDS011;9579;49.488;8.226;2024-03-29T07:13:53;7.47;;;5.87;;
18893;SDS011;9579;49.488;8.226;2024-03-29T07:16:40;6.50;;;5.80;;
18893;SDS011;9579;49.488;8.226;2024-03-29T07:19:27;4.43;;;4.03;;
18893;SDS011;9579;49.488;8.226;2024-03-29T07:22:14;3.60;;;3.30;;
18893;SDS011;9579;49.488;8.226;2024-03-29T07:25:01;3.47;;;2.90;;
18893;SDS011;9579;49.488;8.226;2024-03-29T07:27:50;3.47;;;2.70;;
18893;SDS011;9579;49.488;8.226;2024-03-29T07:30:37;2.70;;;2.50;;
18893;SDS011;9579;49.488;8.226;2024-03-29T07:33:24;2.30;;;2.10;;
18893;SDS011;9579;49.488;8.226;2024-03-29T07:36:12;2.50;;;2.30;;
18893;SDS011;9579;49.488;8.226;2024-03-29T07:39:02;2.20;;;2.00;;
18893;SDS011;9579;49.488;8.226;2024-03-29T07:41:49;2.53;;;2.20;;
18893;SDS011;9579;49.488;8.226;2024-03-29T07:44:38;2.00;;;1.90;;
18893;SDS011;9579;49.488;8.226;2024-03-29T07:47:25;2.13;;;2.00;;
18893;SDS011;9579;49.488;8.226;2024-03-29T07:50:12;2.20;;;2.00;;
18893;SDS011;9579;49.488;8.226;2024-03-29T07:52:59;2.97;;;2.60;;
18893;SDS011;9579;49.488;8.226;2024-03-29T07:55:46;3.00;;;2.70;;
18893;SDS011;9579;49.488;8.226;2024-03-29T07:58:36;2.30;;;2.10;;
18893;SDS011;9579;49.488;8.226;2024-03-29T08:01:24;2.27;;;2.03;;
18893;SDS011;9579;49.488;8.226;2024-03-29T08:04:11;2.27;;;2.00;;
18893;SDS011;9579;49.488;8.226;2024-03-29T08:06:59;2.27;;;1.77;;
18893;SDS011;9579;49.488;8.226;2024-03-29T08:09:46;2.10;;;1.90;;
18893;SDS011;9579;49.488;8.226;2024-03-29T08:12:33;1.87;;;1.53;;
18893;SDS011;9579;49.488;8.226;2024-03-29T08:15:22;1.67;;;1.53;;
18893;SDS011;9579;49.488;8.226;2024-03-29T08:18:11;2.73;;;1.63;;
18893;SDS011;9579;49.488;8.226;2024-03-29T08:20:58;1.90;;;1.70;;
18893;SDS011;9579;49.488;8.226;2024-03-29T08:23:45;2.53;;;1.90;;
18893;SDS011;9579;49.488;8.226;2024-03-29T08:26:33;1.77;;;1.67;;
18893;SDS011;9579;49.488;8.226;2024-03-29T08:29:20;1.93;;;1.70;;
18893;SDS011;9579;49.488;8.226;2024-03-29T08:32:07;2.10;;;2.00;;
18893;SDS011;9579;49.488;8.226;2024-03-29T08:34:57;2.17;;;1.97;;
18893;SDS011;9579;49.488;8.226;2024-03-29T08:37:44;2.53;;;1.93;;
18893;SDS011;9579;49.488;8.226;2024-03-29T08:40:31;1.90;;;1.80;;
18893;SDS011;9579;49.488;8.226;2024-03-29T08:43:19;1.70;;;1.60;;
18893;SDS011;9579;49.488;8.226;2024-03-29T08:46:06;2.10;;;1.80;;
18893;SDS011;9579;49.488;8.226;2024-03-29T08:48:54;1.73;;;1.60;;
18893;SDS011;9579;49.488;8.226;2024-03-29T08:51:43;2.20;;;1.83;;
18893;SDS011;9579;49.488;8.226;2024-03-29T08:54:30;2.23;;;1.57;;
18893;SDS011;9579;49.488;8.226;2024-03-29T08:57:17;3.27;;;1.70;;
18893;SDS011;9579;49.488;8.226;2024-03-29T09:00:04;1.93;;;1.60;;
18893;SDS011;9579;49.488;8.226;2024-03-29T09:02:53;3.83;;;1.80;;
18893;SDS011;9579;49.488;8.226;2024-03-29T09:05:41;2.00;;;1.90;;
18893;SDS011;9579;49.488;8.226;2024-03-29T09:08:29;1.77;;;1.67;;
18893;SDS011;9579;49.488;8.226;2024-03-29T09:11:16;2.10;;;1.90;;
18893;SDS011;9579;49.488;8.226;2024-03-29T09:14:03;2.33;;;2.00;;
18893;SDS011;9579;49.488;8.226;2024-03-29T09:16:53;2.23;;;2.00;;
18893;SDS011;9579;49.488;8.226;2024-03-29T09:19:40;2.60;;;2.10;;
18893;SDS011;9579;49.488;8.226;2024-03-29T09:22:27;2.00;;;1.80;;
18893;SDS011;9579;49.488;8.226;2024-03-29T09:25:15;2.73;;;1.87;;
18893;SDS011;9579;49.488;8.226;2024-03-29T09:28:02;3.20;;;1.70;;
18893;SDS011;9579;49.488;8.226;2024-03-29T09:30:49;2.57;;;1.80;;
18893;SDS011;9579;49.488;8.226;2024-03-29T09:33:36;4.07;;;2.10;;
18893;SDS011;9579;49.488;8.226;2024-03-29T09:36:23;2.77;;;2.00;;
18893;SDS011;9579;49.488;8.226;2024-03-29T09:39:10;2.43;;;1.97;;
18893;SDS011;9579;49.488;8.226;2024-03-29T09:41:59;2.40;;;1.90;;
18893;SDS011;9579;49.488;8.226;2024-03-29T09:44:50;3.57;;;1.90;;
18893;SDS011;9579;49.488;8.226;2024-03-29T09:47:38;2.17;;;1.90;;
18893;SDS011;9579;49.488;8.226;2024-03-29T09:50:27;2.87;;;1.90;;
18893;SDS011;9579;49.488;8.226;2024-03-29T09:53:15;2.10;;;1.90;;
18893;SDS011;9579;49.488;8.226;2024-03-29T09:56:04;2.23;;;1.90;;
18893;SDS011;9579;49.488;8.226;2024-03-29T09:58:53;2.40;;;2.20;;
18893;SDS011;9579;49.488;8.226;2024-03-29T10:01:40;3.50;;;2.00;;
18893;SDS011;9579;49.488;8.226;2024-03-29T10:04:27;2.53;;;2.27;;
18893;SDS011;9579;49.488;8.226;2024-03-29T10:07:15;3.70;;;2.13;;
18893;SDS011;9579;49.488;8.226;2024-03-29T10:10:02;2.07;;;1.87;;
18893;SDS011;9579;49.488;8.226;2024-03-29T10:12:50;2.13;;;1.93;;
18893;SDS011;9579;49.488;8.226;2024-03-29T10:15:38;2.33;;;2.13;;
18893;SDS011;9579;49.488;8.226;2024-03-29T10:18:28;1.83;;;1.70;;
18893;SDS011;9579;49.488;8.226;2024-03-29T10:21:16;2.47;;;2.00;;
18893;SDS011;9579;49.488;8.226;2024-03-29T10:24:10;2.20;;;1.97;;
18893;SDS011;9579;49.488;8.226;2024-03-29T10:26:59;2.47;;;1.83;;
18893;SDS011;9579;49.488;8.226;2024-03-29T10:29:46;1.93;;;1.70;;
18893;SDS011;9579;49.488;8.226;2024-03-29T10:32:34;2.00;;;1.90;;
18893;SDS011;9579;49.488;8.226;2024-03-29T10:35:24;2.67;;;2.07;;
18893;SDS011;9579;49.488;8.226;2024-03-29T10:38:11;2.40;;;2.00;;
18893;SDS011;9579;49.488;8.226;2024-03-29T10:40:59;2.00;;;1.90;;
18893;SDS011;9579;49.488;8.226;2024-03-29T10:43:48;2.10;;;1.90;;
18893;SDS011;9579;49.488;8.226;2024-03-29T10:46:38;1.97;;;1.80;;
18893;SDS011;9579;49.488;8.226;2024-03-29T10:49:28;2.80;;;2.07;;
18893;SDS011;9579;49.488;8.226;2024-03-29T10:52:20;2.03;;;1.80;;
18893;SDS011;9579;49.488;8.226;2024-03-29T10:55:09;3.30;;;2.13;;
18893;SDS011;9579;49.488;8.226;2024-03-29T10:57:57;1.85;;;1.75;;
18893;SDS011;9579;49.488;8.226;2024-03-29T11:00:45;1.80;;;1.70;;
18893;SDS011;9579;49.488;8.226;2024-03-29T11:03:36;2.17;;;1.98;;
18893;SDS011;9579;49.488;8.226;2024-03-29T11:06:28;2.63;;;1.92;;
18893;SDS011;9579;49.488;8.226;2024-03-29T11:09:17;2.80;;;2.10;;
18893;SDS011;9579;49.488;8.226;2024-03-29T11:12:07;1.80;;;1.70;;
18893;SDS011;9579;49.488;8.226;2024-03-29T11:14:58;2.08;;;1.90;;
18893;SDS011;9579;49.488;8.226;2024-03-29T11:17:50;2.17;;;1.98;;
18893;SDS011;9579;49.488;8.226;2024-03-29T11:20:37;1.90;;;1.80;;
18893;SDS011;9579;49.488;8.226;2024-03-29T11:23:29;2.10;;;1.85;;
18893;SDS011;9579;49.488;8.226;2024-03-29T11:26:16;2.30;;;2.10;;
18893;SDS011;9579;49.488;8.226;2024-03-29T11:29:04;3.40;;;2.30;;
18893;SDS011;9579;49.488;8.226;2024-03-29T11:31:56;1.90;;;1.80;;
18893;SDS011;9579;49.488;8.226;2024-03-29T11:34:43;3.30;;;3.00;;
18893;SDS011;9579;49.488;8.226;2024-03-29T11:37:31;2.25;;;2.05;;
18893;SDS011;9579;49.488;8.226;2024-03-29T11:40:19;3.05;;;2.45;;
18893;SDS011;9579;49.488;8.226;2024-03-29T11:43:06;2.60;;;2.40;;
18893;SDS011;9579;49.488;8.226;2024-03-29T11:45:54;2.10;;;2.00;;
18893;SDS011;9579;49.488;8.226;2024-03-29T11:48:43;3.70;;;2.40;;
18893;SDS011;9579;49.488;8.226;2024-03-29T11:51:32;2.45;;;2.25;;
18893;SDS011;9579;49.488;8.226;2024-03-29T11:54:19;2.22;;;2.03;;
18893;SDS011;9579;49.488;8.226;2024-03-29T11:57:09;2.47;;;2.27;;
18893;SDS011;9579;49.488;8.226;2024-03-29T11:59:56;2.97;;;2.67;;
18893;SDS011;9579;49.488;8.226;2024-03-29T12:02:43;6.67;;;6.07;;
18893;SDS011;9579;49.488;8.226;2024-03-29T12:05:30;3.10;;;2.80;;
18893;SDS011;9579;49.488;8.226;2024-03-29T12:08:18;2.50;;;2.30;;
18893;SDS011;9579;49.488;8.226;2024-03-29T12:11:05;2.42;;;2.22;;
18893;SDS011;9579;49.488;8.226;2024-03-29T12:13:54;2.10;;;1.88;;
18893;SDS011;9579;49.488;8.226;2024-03-29T12:16:42;2.25;;;2.10;;
18893;SDS011;9579;49.488;8.226;2024-03-29T12:19:30;2.20;;;2.10;;
18893;SDS011;9579;49.488;8.226;2024-03-29T12:22:21;2.83;;;2.63;;
18893;SDS011;9579;49.488;8.226;2024-03-29T12:25:08;3.27;;;2.97;;
18893;SDS011;9579;49.488;8.226;2024-03-29T12:27:56;3.13;;;2.85;;
18893;SDS011;9579;49.488;8.226;2024-03-29T12:30:46;2.50;;;2.30;;
18893;SDS011;9579;49.488;8.226;2024-03-29T12:33:35;2.60;;;2.40;;
18893;SDS011;9579;49.488;8.226;2024-03-29T12:36:25;2.93;;;2.63;;
18893;SDS011;9579;49.488;8.226;2024-03-29T12:39:13;2.80;;;2.60;;
18893;SDS011;9579;49.488;8.226;2024-03-29T12:42:06;2.73;;;2.53;;
18893;SDS011;9579;49.488;8.226;2024-03-29T12:44:55;2.60;;;2.40;;
18893;SDS011;9579;49.488;8.226;2024-03-29T12:47:43;2.40;;;2.20;;
18893;SDS011;9579;49.488;8.226;2024-03-29T12:50:31;3.13;;;2.83;;
18893;SDS011;9579;49.488;8.226;2024-03-29T12:53:19;2.67;;;2.47;;
18893;SDS011;9579;49.488;8.226;2024-03-29T12:56:06;2.90;;;2.70;;
18893;SDS011;9579;49.488;8.226;2024-03-29T12:58:54;2.88;;;2.60;;
18893;SDS011;9579;49.488;8.226;2024-03-29T13:01:41;2.72;;;2.53;;
18893;SDS011;9579;49.488;8.226;2024-03-29T13:04:32;2.50;;;2.30;;
18893;SDS011;9579;49.488;8.226;2024-03-29T13:07:19;2.95;;;2.60;;
18893;SDS011;9579;49.488;8.226;2024-03-29T13:10:06;2.30;;;2.20;;
18893;SDS011;9579;49.488;8.226;2024-03-29T13:12:58;3.03;;;2.78;;
18893;SDS011;9579;49.488;8.226;2024-03-29T13:15:46;2.70;;;2.50;;
18893;SDS011;9579;49.488;8.226;2024-03-29T13:18:36;3.78;;;2.83;;
18893;SDS011;9579;49.488;8.226;2024-03-29T13:21:27;2.90;;;2.70;;
18893;SDS011;9579;49.488;8.226;2024-03-29T13:24:14;2.85;;;2.55;;
18893;SDS011;9579;49.488;8.226;2024-03-29T13:27:01;2.95;;;2.70;;
18893;SDS011;9579;49.488;8.226;2024-03-29T13:29:49;3.00;;;2.80;;
18893;SDS011;9579;49.488;8.226;2024-03-29T13:32:38;3.60;;;3.30;;
18893;SDS011;9579;49.488;8.226;2024-03-29T13:35:26;2.92;;;2.63;;
18893;SDS011;9579;49.488;8.226;2024-03-29T13:38:15;3.63;;;3.30;;
18893;SDS011;9579;49.488;8.226;2024-03-29T13:41:07;10.52;;;9.52;;
18893;SDS011;9579;49.488;8.226;2024-03-29T13:43:56;6.03;;;5.53;;
18893;SDS011;9579;49.488;8.226;2024-03-29T13:46:45;5.88;;;5.38;;
18893;SDS011;9579;49.488;8.226;2024-03-29T13:49:32;4.25;;;3.85;;
18893;SDS011;9579;49.488;8.226;2024-03-29T13:52:19;3.50;;;3.20;;
18893;SDS011;9579;49.488;8.226;2024-03-29T13:55:09;3.90;;;3.60;;
18893;SDS011;9579;49.488;8.226;2024-03-29T13:57:56;4.10;;;3.80;;
18893;SDS011;9579;49.488;8.226;2024-03-29T14:00:44;4.28;;;3.88;;
18893;SDS011;9579;49.488;8.226;2024-03-29T14:03:31;4.45;;;4.15;;
18893;SDS011;9579;49.488;8.226;2024-03-29T14:06:19;4.43;;;3.97;;
18893;SDS011;9579;49.488;8.226;2024-03-29T14:09:07;4.03;;;3.72;;
18893;SDS011;9579;49.488;8.226;2024-03-29T14:11:55;3.95;;;3.65;;
18893;SDS011;9579;49.488;8.226;2024-03-29T14:14:42;4.45;;;4.05;;
18893;SDS011;9579;49.488;8.226;2024-03-29T14:17:33;3.30;;;3.10;;
18893;SDS011;9579;49.488;8.226;2024-03-29T14:20:21;3.10;;;2.90;;
18893;SDS011;9579;49.488;8.226;2024-03-29T14:23:08;3.20;;;3.00;;
18893;SDS011;9579;49.488;8.226;2024-03-29T14:25:58;3.63;;;3.33;;
18893;SDS011;9579;49.488;8.226;2024-03-29T14:28:47;3.30;;;3.00;;
18893;SDS011;9579;49.488;8.226;2024-03-29T14:31:34;3.50;;;3.20;;
18893;SDS011;9579;49.488;8.226;2024-03-29T14:34:22;4.15;;;3.80;;
18893;SDS011;9579;49.488;8.226;2024-03-29T14:37:09;4.13;;;3.30;;
18893;SDS011;9579;49.488;8.226;2024-03-29T14:39:59;3.03;;;2.83;;
18893;SDS011;9579;49.488;8.226;2024-03-29T14:42:46;3.53;;;3.22;;
18893;SDS011;9579;49.488;8.226;2024-03-29T14:45:35;2.95;;;2.75;;
18893;SDS011;9579;49.488;8.226;2024-03-29T14:48:22;3.00;;;2.80;;
18893;SDS011;9579;49.488;8.226;2024-03-29T14:51:10;3.67;;;3.28;;
18893;SDS011;9579;49.488;8.226;2024-03-29T14:53:57;3.25;;;2.95;;
18893;SDS011;9579;49.488;8.226;2024-03-29T14:56:44;3.63;;;3.00;;
18893;SDS011;9579;49.488;8.226;2024-03-29T14:59:32;3.15;;;2.70;;
18893;SDS011;9579;49.488;8.226;2024-03-29T15:02:23;2.58;;;2.38;;
18893;SDS011;9579;49.488;8.226;2024-03-29T15:05:10;2.60;;;2.40;;
18893;SDS011;9579;49.488;8.226;2024-03-29T15:07:58;2.90;;;2.70;;
18893;SDS011;9579;49.488;8.226;2024-03-29T15:10:45;2.80;;;2.60;;
18893;SDS011;9579;49.488;8.226;2024-03-29T15:13:32;2.30;;;2.10;;
18893;SDS011;9579;49.488;8.226;2024-03-29T15:16:20;2.50;;;2.28;;
18893;SDS011;9579;49.488;8.226;2024-03-29T15:19:09;2.20;;;2.10;;
18893;SDS011;9579;49.488;8.226;2024-03-29T15:21:56;2.72;;;2.10;;
18893;SDS011;9579;49.488;8.226;2024-03-29T15:24:43;2.15;;;2.00;;
18893;SDS011;9579;49.488;8.226;2024-03-29T15:27:31;2.17;;;2.00;;
18893;SDS011;9579;49.488;8.226;2024-03-29T15:30:32;2.53;;;2.33;;
18893;SDS011;9579;49.488;8.226;2024-03-29T15:33:21;2.17;;;2.00;;
18893;SDS011;9579;49.488;8.226;2024-03-29T15:36:10;2.50;;;2.30;;
18893;SDS011;9579;49.488;8.226;2024-03-29T15:38:58;2.67;;;2.47;;
18893;SDS011;9579;49.488;8.226;2024-03-29T15:41:50;2.08;;;1.88;;
18893;SDS011;9579;49.488;8.226;2024-03-29T15:44:38;2.15;;;1.95;;
18893;SDS011;9579;49.488;8.226;2024-03-29T15:47:25;1.75;;;1.65;;
18893;SDS011;9579;49.488;8.226;2024-03-29T15:50:19;1.80;;;1.70;;
18893;SDS011;9579;49.488;8.226;2024-03-29T15:53:08;2.17;;;1.98;;
18893;SDS011;9579;49.488;8.226;2024-03-29T15:55:55;2.40;;;2.20;;
18893;SDS011;9579;49.488;8.226;2024-03-29T15:58:43;1.50;;;1.40;;
18893;SDS011;9579;49.488;8.226;2024-03-29T16:01:30;1.40;;;1.30;;
18893;SDS011;9579;49.488;8.226;2024-03-29T16:04:18;1.38;;;1.27;;
18893;SDS011;9579;49.488;8.226;2024-03-29T16:07:05;1.30;;;1.20;;
18893;SDS011;9579;49.488;8.226;2024-03-29T16:09:54;1.20;;;1.20;;
18893;SDS011;9579;49.488;8.226;2024-03-29T16:12:47;1.30;;;1.20;;
18893;SDS011;9579;49.488;8.226;2024-03-29T16:15:35;1.30;;;1.20;;
18893;SDS011;9579;49.488;8.226;2024-03-29T16:18:22;1.70;;;1.60;;
18893;SDS011;9579;49.488;8.226;2024-03-29T16:21:08;1.50;;;1.40;;
18893;SDS011;9579;49.488;8.226;2024-03-29T16:23:55;1.52;;;1.38;;
18893;SDS011;9579;49.488;8.226;2024-03-29T16:26:44;1.50;;;1.40;;
18893;SDS011;9579;49.488;8.226;2024-03-29T16:29:31;1.23;;;1.15;;
18893;SDS011;9579;49.488;8.226;2024-03-29T16:32:17;1.92;;;1.35;;
18893;SDS011;9579;49.488;8.226;2024-03-29T16:35:04;2.05;;;1.85;;
18893;SDS011;9579;49.488;8.226;2024-03-29T16:37:51;1.98;;;1.80;;
18893;SDS011;9579;49.488;8.226;2024-03-29T16:40:38;2.13;;;1.90;;
18893;SDS011;9579;49.488;8.226;2024-03-29T16:43:27;1.80;;;1.70;;
18893;SDS011;9579;49.488;8.226;2024-03-29T16:46:14;2.15;;;2.05;;
18893;SDS011;9579;49.488;8.226;2024-03-29T16:49:00;4.43;;;3.88;;
18893;SDS011;9579;49.488;8.226;2024-03-29T16:51:49;6.72;;;5.60;;
18893;SDS011;9579;49.488;8.226;2024-03-29T16:54:35;1.63;;;1.52;;
18893;SDS011;9579;49.488;8.226;2024-03-29T16:57:22;1.77;;;1.67;;
18893;SDS011;9579;49.488;8.226;2024-03-29T17:00:12;1.73;;;1.63;;
18893;SDS011;9579;49.488;8.226;2024-03-29T17:03:00;1.70;;;1.60;;
18893;SDS011;9579;49.488;8.226;2024-03-29T17:05:47;1.30;;;1.20;;